sensor_id;sensor_type;location;lat;lon;timestamp;pressure;altitude;pressure_sealevel;temperature;humidity
40650;BME280;26342;42.826;23.992;2023-07-13T00:00:23;95554.34;;;20.13;100.00
40650;BME280;26342;42.826;23.992;2023-07-13T00:02:48;95558.34;;;20.16;100.00
40650;BME280;26342;42.826;23.992;2023-07-13T00:05:14;95563.59;;;20.12;100.00
40650;BME280;26342;42.826;23.992;2023-07-13T00:07:39;95553.03;;;20.02;100.00
40650;BME280;26342;42.826;23.992;2023-07-13T00:10:05;95553.34;;;20.00;100.00
40650;BME280;26342;42.826;23.992;2023-07-13T00:12:34;95554.94;;;20.01;100.00
40650;BME280;26342;42.826;23.992;2023-07-13T00:15:03;95542.63;;;19.95;100.00
40650;BME280;26342;42.826;23.992;2023-07-13T00:17:29;95549.53;;;20.01;100.00
40650;BME280;26342;42.826;23.992;2023-07-13T00:19:56;95541.84;;;19.95;100.00
40650;BME280;26342;42.826;23.992;2023-07-13T00:22:23;95545.03;;;19.97;100.00
40650;BME280;26342;42.826;23.992;2023-07-13T00:24:53;95541.84;;;19.95;100.00
40650;BME280;26342;42.826;23.992;2023-07-13T00:27:22;95535.47;;;19.91;100.00
40650;BME280;26342;42.826;23.992;2023-07-13T00:29:47;95533.38;;;19.88;100.00
40650;BME280;26342;42.826;23.992;2023-07-13T00:32:13;95527.28;;;19.82;100.00
40650;BME280;26342;42.826;23.992;2023-07-13T00:34:39;95524.41;;;19.78;100.00
40650;BME280;26342;42.826;23.992;2023-07-13T00:37:06;95527.91;;;19.79;100.00
40650;BME280;26342;42.826;23.992;2023-07-13T00:39:33;95523.41;;;19.74;100.00
40650;BME280;26342;42.826;23.992;2023-07-13T00:41:59;95523.25;;;19.71;100.00
40650;BME280;26342;42.826;23.992;2023-07-13T00:44:24;95523.25;;;19.71;100.00
40650;BME280;26342;42.826;23.992;2023-07-13T00:46:50;95525.16;;;19.70;100.00
40650;BME280;26342;42.826;23.992;2023-07-13T00:49:19;95525.47;;;19.69;100.00
40650;BME280;26342;42.826;23.992;2023-07-13T00:51:52;95528.34;;;19.72;100.00
40650;BME280;26342;42.826;23.992;2023-07-13T00:54:28;95531.38;;;19.71;100.00
40650;BME280;26342;42.826;23.992;2023-07-13T00:56:58;95526.06;;;19.66;100.00
40650;BME280;26342;42.826;23.992;2023-07-13T00:59:25;95519.06;;;19.65;100.00
40650;BME280;26342;42.826;23.992;2023-07-13T01:01:51;95523.88;;;19.68;100.00
40650;BME280;26342;42.826;23.992;2023-07-13T01:04:18;95521.28;;;19.63;100.00
40650;BME280;26342;42.826;23.992;2023-07-13T01:06:45;95507.09;;;19.57;100.00
40650;BME280;26342;42.826;23.992;2023-07-13T01:09:13;95518.72;;;19.58;100.00
40650;BME280;26342;42.826;23.992;2023-07-13T01:11:38;95523.84;;;19.59;100.00
40650;BME280;26342;42.826;23.992;2023-07-13T01:14:04;95521.41;;;19.58;100.00
40650;BME280;26342;42.826;23.992;2023-07-13T01:16:32;95524.72;;;19.55;100.00
40650;BME280;26342;42.826;23.992;2023-07-13T01:18:58;95520.84;;;19.47;100.00
40650;BME280;26342;42.826;23.992;2023-07-13T01:21:27;95519.94;;;19.51;100.00
40650;BME280;26342;42.826;23.992;2023-07-13T01:23:53;95516.72;;;19.49;100.00
40650;BME280;26342;42.826;23.992;2023-07-13T01:26:20;95519.13;;;19.51;100.00
40650;BME280;26342;42.826;23.992;2023-07-13T01:28:45;95512.75;;;19.47;100.00
40650;BME280;26342;42.826;23.992;2023-07-13T01:31:11;95517.00;;;19.39;100.00
40650;BME280;26342;42.826;23.992;2023-07-13T01:33:39;95503.78;;;19.38;100.00
40650;BME280;26342;42.826;23.992;2023-07-13T01:36:06;95505.16;;;19.35;100.00
40650;BME280;26342;42.826;23.992;2023-07-13T01:38:32;95504.88;;;19.37;100.00
40650;BME280;26342;42.826;23.992;2023-07-13T01:40:58;95500.03;;;19.25;100.00
40650;BME280;26342;42.826;23.992;2023-07-13T01:43:24;95511.53;;;19.31;100.00
40650;BME280;26342;42.826;23.992;2023-07-13T01:45:50;95496.50;;;19.24;100.00
40650;BME280;26342;42.826;23.992;2023-07-13T01:48:15;95508.63;;;19.27;100.00
40650;BME280;26342;42.826;23.992;2023-07-13T01:50:41;95497.00;;;19.27;100.00
40650;BME280;26342;42.826;23.992;2023-07-13T01:53:07;95488.81;;;19.18;100.00
40650;BME280;26342;42.826;23.992;2023-07-13T01:55:34;95496.16;;;19.17;100.00
40650;BME280;26342;42.826;23.992;2023-07-13T01:58:01;95497.56;;;19.15;100.00
40650;BME280;26342;42.826;23.992;2023-07-13T02:00:27;95507.44;;;19.19;100.00
40650;BME280;26342;42.826;23.992;2023-07-13T02:02:52;95496.09;;;19.09;100.00
40650;BME280;26342;42.826;23.992;2023-07-13T02:05:19;95502.97;;;19.15;100.00
40650;BME280;26342;42.826;23.992;2023-07-13T02:07:45;95500.91;;;19.12;100.00
40650;BME280;26342;42.826;23.992;2023-07-13T02:10:11;95504.22;;;19.09;100.00
40650;BME280;26342;42.826;23.992;2023-07-13T02:12:37;95512.31;;;19.09;100.00
40650;BME280;26342;42.826;23.992;2023-07-13T02:15:03;95505.78;;;19.10;100.00
40650;BME280;26342;42.826;23.992;2023-07-13T02:17:29;95513.13;;;19.09;100.00
40650;BME280;26342;42.826;23.992;2023-07-13T02:19:56;95505.00;;;19.09;100.00
40650;BME280;26342;42.826;23.992;2023-07-13T02:22:23;95515.34;;;19.07;100.00
40650;BME280;26342;42.826;23.992;2023-07-13T02:24:50;95510.72;;;19.08;100.00
40650;BME280;26342;42.826;23.992;2023-07-13T02:27:15;95507.53;;;19.06;100.00
40650;BME280;26342;42.826;23.992;2023-07-13T02:29:41;95515.66;;;19.06;100.00
40650;BME280;26342;42.826;23.992;2023-07-13T02:32:08;95508.13;;;19.03;100.00
40650;BME280;26342;42.826;23.992;2023-07-13T02:34:34;95510.03;;;19.02;100.00
40650;BME280;26342;42.826;23.992;2023-07-13T02:36:59;95509.88;;;18.99;100.00
40650;BME280;26342;42.826;23.992;2023-07-13T02:39:25;95514.47;;;18.98;100.00
40650;BME280;26342;42.826;23.992;2023-07-13T02:41:52;95514.59;;;18.93;100.00
40650;BME280;26342;42.826;23.992;2023-07-13T02:44:17;95509.97;;;18.93;100.00
40650;BME280;26342;42.826;23.992;2023-07-13T02:46:43;95511.69;;;18.89;100.00
40650;BME280;26342;42.826;23.992;2023-07-13T02:49:08;95521.72;;;18.89;100.00
40650;BME280;26342;42.826;23.992;2023-07-13T02:51:34;95515.78;;;18.87;100.00
40650;BME280;26342;42.826;23.992;2023-07-13T02:54:00;95518.44;;;18.78;100.00
40650;BME280;26342;42.826;23.992;2023-07-13T02:56:29;95514.44;;;18.76;100.00
40650;BME280;26342;42.826;23.992;2023-07-13T02:58:54;95507.44;;;18.75;100.00
40650;BME280;26342;42.826;23.992;2023-07-13T03:01:21;95516.53;;;18.79;100.00
40650;BME280;26342;42.826;23.992;2023-07-13T03:03:50;95511.91;;;18.79;100.00
40650;BME280;26342;42.826;23.992;2023-07-13T03:06:17;95509.66;;;18.73;100.00
40650;BME280;26342;42.826;23.992;2023-07-13T03:08:44;95502.13;;;18.69;100.00
40650;BME280;26342;42.826;23.992;2023-07-13T03:11:13;95510.63;;;18.77;100.00
40650;BME280;26342;42.826;23.992;2023-07-13T03:13:40;95502.84;;;18.75;100.00
40650;BME280;26342;42.826;23.992;2023-07-13T03:16:06;95508.94;;;18.81;100.00
40650;BME280;26342;42.826;23.992;2023-07-13T03:18:32;95500.44;;;18.74;100.00
40650;BME280;26342;42.826;23.992;2023-07-13T03:20:58;95502.03;;;18.75;100.00
40650;BME280;26342;42.826;23.992;2023-07-13T03:23:24;95512.44;;;18.81;100.00
40650;BME280;26342;42.826;23.992;2023-07-13T03:25:50;95513.66;;;18.75;100.00
40650;BME280;26342;42.826;23.992;2023-07-13T03:28:16;95511.44;;;18.77;100.00
40650;BME280;26342;42.826;23.992;2023-07-13T03:30:42;95508.41;;;18.79;100.00
40650;BME280;26342;42.826;23.992;2023-07-13T03:33:08;95509.09;;;18.84;100.00
40650;BME280;26342;42.826;23.992;2023-07-13T03:35:35;95517.69;;;18.86;100.00
40650;BME280;26342;42.826;23.992;2023-07-13T03:38:00;95515.38;;;18.93;100.00
40650;BME280;26342;42.826;23.992;2023-07-13T03:40:27;95522.69;;;18.93;100.00
40650;BME280;26342;42.826;23.992;2023-07-13T03:42:53;95522.09;;;18.96;100.00
40650;BME280;26342;42.826;23.992;2023-07-13T03:45:19;95516.88;;;19.00;100.00
40650;BME280;26342;42.826;23.992;2023-07-13T03:47:45;95523.69;;;18.97;100.00
40650;BME280;26342;42.826;23.992;2023-07-13T03:50:11;95520.06;;;19.02;100.00
40650;BME280;26342;42.826;23.992;2023-07-13T03:52:37;95519.00;;;19.11;100.00
40650;BME280;26342;42.826;23.992;2023-07-13T03:55:03;95513.50;;;19.16;100.00
40650;BME280;26342;42.826;23.992;2023-07-13T03:57:28;95515.28;;;19.21;100.00
40650;BME280;26342;42.826;23.992;2023-07-13T03:59:54;95518.53;;;19.32;100.00
40650;BME280;26342;42.826;23.992;2023-07-13T04:02:20;95518.09;;;19.38;100.00
40650;BME280;26342;42.826;23.992;2023-07-13T04:04:46;95513.38;;;19.44;100.00
40650;BME280;26342;42.826;23.992;2023-07-13T04:07:11;95520.22;;;19.50;100.00
40650;BME280;26342;42.826;23.992;2023-07-13T04:09:37;95527.50;;;19.63;100.00
40650;BME280;26342;42.826;23.992;2023-07-13T04:12:03;95510.47;;;19.63;100.00
40650;BME280;26342;42.826;23.992;2023-07-13T04:14:29;95521.66;;;19.70;100.00
40650;BME280;26342;42.826;23.992;2023-07-13T04:16:54;95522.13;;;19.72;100.00
40650;BME280;26342;42.826;23.992;2023-07-13T04:19:20;95531.28;;;19.85;100.00
40650;BME280;26342;42.826;23.992;2023-07-13T04:21:46;95527.94;;;19.88;100.00
40650;BME280;26342;42.826;23.992;2023-07-13T04:24:12;95530.06;;;19.91;100.00
40650;BME280;26342;42.826;23.992;2023-07-13T04:26:38;95536.44;;;19.95;100.00
40650;BME280;26342;42.826;23.992;2023-07-13T04:29:04;95532.00;;;19.99;100.00
40650;BME280;26342;42.826;23.992;2023-07-13T04:31:30;95537.25;;;20.04;100.00
40650;BME280;26342;42.826;23.992;2023-07-13T04:33:55;95528.34;;;20.03;100.00
40650;BME280;26342;42.826;23.992;2023-07-13T04:36:22;95522.34;;;20.15;100.00
40650;BME280;26342;42.826;23.992;2023-07-13T04:38:48;95533.69;;;20.34;100.00
40650;BME280;26342;42.826;23.992;2023-07-13T04:41:14;95536.94;;;20.45;100.00
40650;BME280;26342;42.826;23.992;2023-07-13T04:43:40;95541.59;;;20.53;100.00
40650;BME280;26342;42.826;23.992;2023-07-13T04:46:10;95526.44;;;20.61;100.00
40650;BME280;26342;42.826;23.992;2023-07-13T04:48:37;95531.91;;;20.78;100.00
40650;BME280;26342;42.826;23.992;2023-07-13T04:51:03;95531.94;;;20.87;100.00
40650;BME280;26342;42.826;23.992;2023-07-13T04:53:30;95532.41;;;20.98;100.00
40650;BME280;26342;42.826;23.992;2023-07-13T04:55:55;95527.75;;;21.07;100.00
40650;BME280;26342;42.826;23.992;2023-07-13T04:58:22;95529.06;;;21.18;100.00
40650;BME280;26342;42.826;23.992;2023-07-13T05:00:48;95529.22;;;21.30;100.00
40650;BME280;26342;42.826;23.992;2023-07-13T05:03:13;95526.66;;;21.42;100.00
40650;BME280;26342;42.826;23.992;2023-07-13T05:05:38;95521.03;;;21.56;100.00
40650;BME280;26342;42.826;23.992;2023-07-13T05:08:04;95514.66;;;21.61;100.00
40650;BME280;26342;42.826;23.992;2023-07-13T05:10:29;95534.41;;;21.79;100.00
40650;BME280;26342;42.826;23.992;2023-07-13T05:12:55;95528.31;;;21.90;100.00
40650;BME280;26342;42.826;23.992;2023-07-13T05:15:22;95535.28;;;22.09;100.00
40650;BME280;26342;42.826;23.992;2023-07-13T05:17:48;95536.06;;;22.18;100.00
40650;BME280;26342;42.826;23.992;2023-07-13T05:20:16;95536.97;;;22.31;100.00
40650;BME280;26342;42.826;23.992;2023-07-13T05:22:42;95533.06;;;22.40;100.00
40650;BME280;26342;42.826;23.992;2023-07-13T05:25:09;95526.28;;;22.55;100.00
40650;BME280;26342;42.826;23.992;2023-07-13T05:27:35;95522.84;;;22.67;100.00
40650;BME280;26342;42.826;23.992;2023-07-13T05:30:02;95510.13;;;22.79;100.00
40650;BME280;26342;42.826;23.992;2023-07-13T05:32:28;95520.91;;;22.97;100.00
40650;BME280;26342;42.826;23.992;2023-07-13T05:34:53;95530.06;;;23.13;100.00
40650;BME280;26342;42.826;23.992;2023-07-13T05:37:19;95524.88;;;23.20;100.00
40650;BME280;26342;42.826;23.992;2023-07-13T05:39:44;95529.72;;;23.35;100.00
40650;BME280;26342;42.826;23.992;2023-07-13T05:42:10;95533.84;;;23.54;100.00
40650;BME280;26342;42.826;23.992;2023-07-13T05:44:36;95536.13;;;23.73;100.00
40650;BME280;26342;42.826;23.992;2023-07-13T05:47:01;95538.31;;;23.91;100.00
40650;BME280;26342;42.826;23.992;2023-07-13T05:49:27;95539.47;;;24.03;100.00
40650;BME280;26342;42.826;23.992;2023-07-13T05:51:52;95551.75;;;24.21;100.00
40650;BME280;26342;42.826;23.992;2023-07-13T05:54:18;95546.47;;;24.37;100.00
40650;BME280;26342;42.826;23.992;2023-07-13T05:56:43;95552.03;;;24.53;100.00
40650;BME280;26342;42.826;23.992;2023-07-13T05:59:09;95551.69;;;24.66;100.00
40650;BME280;26342;42.826;23.992;2023-07-13T06:01:35;95555.75;;;24.85;100.00
40650;BME280;26342;42.826;23.992;2023-07-13T06:04:01;95553.91;;;25.01;100.00
40650;BME280;26342;42.826;23.992;2023-07-13T06:06:26;95559.84;;;25.15;100.00
40650;BME280;26342;42.826;23.992;2023-07-13T06:08:52;95560.59;;;25.28;100.00
40650;BME280;26342;42.826;23.992;2023-07-13T06:11:20;95561.25;;;25.37;100.00
40650;BME280;26342;42.826;23.992;2023-07-13T06:13:46;95561.63;;;25.51;100.00
40650;BME280;26342;42.826;23.992;2023-07-13T06:16:12;95565.47;;;25.63;100.00
40650;BME280;26342;42.826;23.992;2023-07-13T06:18:39;95559.03;;;25.83;100.00
40650;BME280;26342;42.826;23.992;2023-07-13T06:21:08;95558.53;;;25.93;100.00
40650;BME280;26342;42.826;23.992;2023-07-13T06:23:34;95563.66;;;26.10;100.00
40650;BME280;26342;42.826;23.992;2023-07-13T06:26:00;95545.69;;;26.25;100.00
40650;BME280;26342;42.826;23.992;2023-07-13T06:28:26;95551.69;;;26.31;100.00
40650;BME280;26342;42.826;23.992;2023-07-13T06:30:51;95554.59;;;26.54;100.00
40650;BME280;26342;42.826;23.992;2023-07-13T06:33:17;95544.28;;;26.63;100.00
40650;BME280;26342;42.826;23.992;2023-07-13T06:35:43;95550.22;;;26.84;100.00
40650;BME280;26342;42.826;23.992;2023-07-13T06:38:08;95538.75;;;26.94;100.00
40650;BME280;26342;42.826;23.992;2023-07-13T06:40:34;95542.44;;;27.02;100.00
40650;BME280;26342;42.826;23.992;2023-07-13T06:42:59;95542.84;;;27.20;100.00
40650;BME280;26342;42.826;23.992;2023-07-13T06:45:25;95536.78;;;27.30;100.00
40650;BME280;26342;42.826;23.992;2023-07-13T06:47:50;95537.44;;;27.43;100.00
40650;BME280;26342;42.826;23.992;2023-07-13T06:50:16;95538.88;;;27.56;100.00
40650;BME280;26342;42.826;23.992;2023-07-13T06:52:41;95537.22;;;27.71;100.00
40650;BME280;26342;42.826;23.992;2023-07-13T06:55:07;95539.41;;;27.81;100.00
40650;BME280;26342;42.826;23.992;2023-07-13T06:57:33;95532.09;;;27.89;100.00
40650;BME280;26342;42.826;23.992;2023-07-13T06:59:59;95534.41;;;28.09;100.00
40650;BME280;26342;42.826;23.992;2023-07-13T07:02:24;95539.38;;;28.23;100.00
40650;BME280;26342;42.826;23.992;2023-07-13T07:04:49;95536.41;;;28.32;100.00
40650;BME280;26342;42.826;23.992;2023-07-13T07:07:15;95529.19;;;28.47;100.00
40650;BME280;26342;42.826;23.992;2023-07-13T07:09:41;95528.91;;;28.52;100.00
40650;BME280;26342;42.826;23.992;2023-07-13T07:12:07;95518.78;;;28.59;100.00
40650;BME280;26342;42.826;23.992;2023-07-13T07:14:33;95525.28;;;28.74;100.00
40650;BME280;26342;42.826;23.992;2023-07-13T07:16:59;95526.97;;;28.82;100.00
40650;BME280;26342;42.826;23.992;2023-07-13T07:19:25;95521.69;;;28.93;100.00
40650;BME280;26342;42.826;23.992;2023-07-13T07:21:50;95533.72;;;29.11;100.00
40650;BME280;26342;42.826;23.992;2023-07-13T07:24:16;95526.81;;;29.25;97.13
40650;BME280;26342;42.826;23.992;2023-07-13T07:26:42;95530.63;;;29.46;96.54
40650;BME280;26342;42.826;23.992;2023-07-13T07:29:07;95527.63;;;29.55;95.89
40650;BME280;26342;42.826;23.992;2023-07-13T07:31:33;95527.78;;;29.69;92.37
40650;BME280;26342;42.826;23.992;2023-07-13T07:33:58;95526.72;;;29.81;90.95
40650;BME280;26342;42.826;23.992;2023-07-13T07:36:23;95532.88;;;30.05;88.85
40650;BME280;26342;42.826;23.992;2023-07-13T07:38:49;95524.00;;;30.18;88.41
40650;BME280;26342;42.826;23.992;2023-07-13T07:41:15;95515.44;;;30.30;83.85
40650;BME280;26342;42.826;23.992;2023-07-13T07:43:40;95515.94;;;30.43;81.88
40650;BME280;26342;42.826;23.992;2023-07-13T07:46:06;95517.28;;;30.64;82.72
40650;BME280;26342;42.826;23.992;2023-07-13T07:48:31;95513.88;;;30.77;78.18
40650;BME280;26342;42.826;23.992;2023-07-13T07:50:57;95504.84;;;30.84;79.75
40650;BME280;26342;42.826;23.992;2023-07-13T07:53:23;95517.91;;;30.91;78.59
40650;BME280;26342;42.826;23.992;2023-07-13T07:55:48;95513.25;;;31.05;78.81
40650;BME280;26342;42.826;23.992;2023-07-13T07:58:15;95509.38;;;31.17;73.18
40650;BME280;26342;42.826;23.992;2023-07-13T08:00:40;95503.91;;;31.24;75.09
40650;BME280;26342;42.826;23.992;2023-07-13T08:03:06;95492.97;;;31.38;72.99
40650;BME280;26342;42.826;23.992;2023-07-13T08:05:35;95494.56;;;31.47;70.06
40650;BME280;26342;42.826;23.992;2023-07-13T08:08:01;95492.63;;;31.58;73.37
40650;BME280;26342;42.826;23.992;2023-07-13T08:10:27;95491.09;;;31.75;68.96
40650;BME280;26342;42.826;23.992;2023-07-13T08:12:52;95495.91;;;31.92;63.60
40650;BME280;26342;42.826;23.992;2023-07-13T08:15:18;95499.47;;;32.00;62.64
40650;BME280;26342;42.826;23.992;2023-07-13T08:17:46;95486.81;;;31.99;60.66
40650;BME280;26342;42.826;23.992;2023-07-13T08:20:13;95490.81;;;32.08;62.98
40650;BME280;26342;42.826;23.992;2023-07-13T08:22:39;95490.78;;;32.22;62.80
40650;BME280;26342;42.826;23.992;2023-07-13T08:25:04;95488.06;;;32.37;62.28
40650;BME280;26342;42.826;23.992;2023-07-13T08:27:30;95489.66;;;32.38;59.53
40650;BME280;26342;42.826;23.992;2023-07-13T08:29:56;95483.34;;;32.44;59.98
40650;BME280;26342;42.826;23.992;2023-07-13T08:32:22;95490.44;;;32.63;59.94
40650;BME280;26342;42.826;23.992;2023-07-13T08:34:49;95490.41;;;32.74;60.89
40650;BME280;26342;42.826;23.992;2023-07-13T08:37:15;95487.66;;;32.88;61.90
40650;BME280;26342;42.826;23.992;2023-07-13T08:39:42;95489.59;;;33.02;59.09
40650;BME280;26342;42.826;23.992;2023-07-13T08:48:11;95494.66;;;33.28;55.15
40650;BME280;26342;42.826;23.992;2023-07-13T08:54:01;95483.81;;;33.70;59.58
40650;BME280;26342;42.826;23.992;2023-07-13T08:56:29;95486.91;;;33.90;58.75
40650;BME280;26342;42.826;23.992;2023-07-13T08:58:57;95489.19;;;34.02;52.90
40650;BME280;26342;42.826;23.992;2023-07-13T09:04:19;95489.41;;;34.29;52.33
40650;BME280;26342;42.826;23.992;2023-07-13T09:09:28;95502.69;;;34.52;52.12
40650;BME280;26342;42.826;23.992;2023-07-13T09:12:09;95509.72;;;34.63;51.90
40650;BME280;26342;42.826;23.992;2023-07-13T09:14:49;95513.94;;;34.79;47.22
40650;BME280;26342;42.826;23.992;2023-07-13T09:17:25;95512.28;;;34.88;45.00
40650;BME280;26342;42.826;23.992;2023-07-13T09:20:17;95506.31;;;34.93;45.75
40650;BME280;26342;42.826;23.992;2023-07-13T09:22:46;95511.44;;;34.95;48.91
40650;BME280;26342;42.826;23.992;2023-07-13T09:25:33;95505.41;;;35.04;46.68
40650;BME280;26342;42.826;23.992;2023-07-13T09:28:02;95512.81;;;35.14;44.43
40650;BME280;26342;42.826;23.992;2023-07-13T09:33:19;95518.09;;;35.42;45.56
40650;BME280;26342;42.826;23.992;2023-07-13T09:35:45;95518.00;;;35.49;43.60
40650;BME280;26342;42.826;23.992;2023-07-13T09:38:14;95516.88;;;35.43;46.10
40650;BME280;26342;42.826;23.992;2023-07-13T09:43:15;95513.66;;;35.48;45.82
40650;BME280;26342;42.826;23.992;2023-07-13T09:45:45;95508.56;;;35.43;47.57
40650;BME280;26342;42.826;23.992;2023-07-13T09:48:13;95501.78;;;35.48;48.28
40650;BME280;26342;42.826;23.992;2023-07-13T09:50:39;95501.03;;;35.44;49.09
40650;BME280;26342;42.826;23.992;2023-07-13T09:53:13;95508.50;;;35.47;52.04
40650;BME280;26342;42.826;23.992;2023-07-13T09:55:39;95494.97;;;35.52;48.10
40650;BME280;26342;42.826;23.992;2023-07-13T10:00:44;95498.09;;;35.55;50.22
40650;BME280;26342;42.826;23.992;2023-07-13T10:03:20;95502.06;;;35.57;51.94
40650;BME280;26342;42.826;23.992;2023-07-13T10:05:47;95500.28;;;35.70;47.70
40650;BME280;26342;42.826;23.992;2023-07-13T10:08:27;95502.56;;;35.79;47.70
40650;BME280;26342;42.826;23.992;2023-07-13T10:10:58;95486.69;;;35.79;49.48
40650;BME280;26342;42.826;23.992;2023-07-13T10:13:31;95491.84;;;35.77;50.07
40650;BME280;26342;42.826;23.992;2023-07-13T10:15:58;95489.47;;;35.79;43.41
40650;BME280;26342;42.826;23.992;2023-07-13T10:18:25;95487.56;;;35.73;45.79
40650;BME280;26342;42.826;23.992;2023-07-13T10:20:58;95475.59;;;35.79;47.32
40650;BME280;26342;42.826;23.992;2023-07-13T10:23:31;95480.22;;;35.90;45.70
40650;BME280;26342;42.826;23.992;2023-07-13T10:25:59;95472.25;;;35.92;45.43
40650;BME280;26342;42.826;23.992;2023-07-13T10:28:31;95481.34;;;35.96;45.30
40650;BME280;26342;42.826;23.992;2023-07-13T10:30:59;95488.13;;;35.91;44.90
40650;BME280;26342;42.826;23.992;2023-07-13T10:33:26;95485.69;;;35.97;45.74
40650;BME280;26342;42.826;23.992;2023-07-13T10:35:59;95484.47;;;35.98;48.73
40650;BME280;26342;42.826;23.992;2023-07-13T10:38:27;95476.94;;;35.98;45.79
40650;BME280;26342;42.826;23.992;2023-07-13T10:40:59;95471.72;;;35.73;48.05
40650;BME280;26342;42.826;23.992;2023-07-13T10:43:34;95468.09;;;35.76;49.63
40650;BME280;26342;42.826;23.992;2023-07-13T10:46:06;95476.19;;;35.94;45.23
40650;BME280;26342;42.826;23.992;2023-07-13T10:48:34;95469.44;;;35.95;47.41
40650;BME280;26342;42.826;23.992;2023-07-13T10:51:04;95466.34;;;35.90;45.99
40650;BME280;26342;42.826;23.992;2023-07-13T10:53:36;95459.66;;;35.84;46.71
40650;BME280;26342;42.826;23.992;2023-07-13T10:56:29;95457.25;;;35.86;48.61
40650;BME280;26342;42.826;23.992;2023-07-13T10:59:15;95447.41;;;35.81;45.94
40650;BME280;26342;42.826;23.992;2023-07-13T11:01:50;95446.63;;;35.80;45.73
40650;BME280;26342;42.826;23.992;2023-07-13T11:04:19;95447.03;;;35.79;49.79
40650;BME280;26342;42.826;23.992;2023-07-13T11:06:48;95446.72;;;35.73;44.47
40650;BME280;26342;42.826;23.992;2023-07-13T11:09:35;95445.59;;;35.71;42.21
40650;BME280;26342;42.826;23.992;2023-07-13T11:12:09;95445.88;;;35.76;42.83
40650;BME280;26342;42.826;23.992;2023-07-13T11:25:31;95447.66;;;36.17;46.53
40650;BME280;26342;42.826;23.992;2023-07-13T11:33:27;95436.47;;;35.97;43.36
40650;BME280;26342;42.826;23.992;2023-07-13T11:38:28;95432.25;;;35.86;40.98
40650;BME280;26342;42.826;23.992;2023-07-13T11:40:56;95430.84;;;35.74;38.80
40650;BME280;26342;42.826;23.992;2023-07-13T11:43:23;95426.19;;;35.67;37.54
40650;BME280;26342;42.826;23.992;2023-07-13T11:45:50;95433.59;;;35.47;41.55
40650;BME280;26342;42.826;23.992;2023-07-13T11:48:25;95431.63;;;35.47;41.70
40650;BME280;26342;42.826;23.992;2023-07-13T11:50:55;95423.41;;;35.37;41.00
40650;BME280;26342;42.826;23.992;2023-07-13T11:53:22;95406.03;;;35.33;36.99
40650;BME280;26342;42.826;23.992;2023-07-13T11:55:48;95420.63;;;35.40;39.29
40650;BME280;26342;42.826;23.992;2023-07-13T11:58:18;95422.97;;;35.38;41.49
40650;BME280;26342;42.826;23.992;2023-07-13T12:00:46;95407.09;;;35.39;39.07
40650;BME280;26342;42.826;23.992;2023-07-13T12:03:13;95409.53;;;35.37;41.09
40650;BME280;26342;42.826;23.992;2023-07-13T12:05:57;95396.91;;;35.32;40.08
40650;BME280;26342;42.826;23.992;2023-07-13T12:08:23;95384.97;;;35.35;39.54
40650;BME280;26342;42.826;23.992;2023-07-13T12:10:59;95377.72;;;35.45;40.62
40650;BME280;26342;42.826;23.992;2023-07-13T12:13:27;95387.16;;;35.51;39.83
40650;BME280;26342;42.826;23.992;2023-07-13T12:15:54;95374.97;;;35.45;40.57
40650;BME280;26342;42.826;23.992;2023-07-13T12:18:23;95390.38;;;35.49;41.90
40650;BME280;26342;42.826;23.992;2023-07-13T12:20:56;95390.38;;;35.49;40.46
40650;BME280;26342;42.826;23.992;2023-07-13T12:23:25;95365.13;;;35.40;39.27
40650;BME280;26342;42.826;23.992;2023-07-13T12:25:53;95366.69;;;35.38;40.26
40650;BME280;26342;42.826;23.992;2023-07-13T12:28:51;95363.13;;;35.41;37.77
40650;BME280;26342;42.826;23.992;2023-07-13T12:33:48;95343.44;;;35.32;38.21
40650;BME280;26342;42.826;23.992;2023-07-13T12:36:15;95351.25;;;35.37;37.94
40650;BME280;26342;42.826;23.992;2023-07-13T12:38:41;95354.03;;;35.40;37.54
40650;BME280;26342;42.826;23.992;2023-07-13T12:41:08;95347.78;;;35.33;37.65
40650;BME280;26342;42.826;23.992;2023-07-13T12:43:36;95345.72;;;35.40;35.90
40650;BME280;26342;42.826;23.992;2023-07-13T12:46:20;95344.41;;;35.48;39.21
40650;BME280;26342;42.826;23.992;2023-07-13T12:48:51;95336.78;;;35.52;37.62
40650;BME280;26342;42.826;23.992;2023-07-13T12:51:21;95341.91;;;35.54;41.27
40650;BME280;26342;42.826;23.992;2023-07-13T12:53:50;95332.91;;;35.46;41.08
40650;BME280;26342;42.826;23.992;2023-07-13T12:56:22;95337.47;;;35.60;43.89
40650;BME280;26342;42.826;23.992;2023-07-13T12:58:49;95339.03;;;35.61;41.60
40650;BME280;26342;42.826;23.992;2023-07-13T13:01:21;95341.78;;;35.65;42.55
40650;BME280;26342;42.826;23.992;2023-07-13T13:03:51;95338.50;;;35.70;39.66
40650;BME280;26342;42.826;23.992;2023-07-13T13:08:48;95335.78;;;35.66;37.04
40650;BME280;26342;42.826;23.992;2023-07-13T13:11:18;95337.81;;;35.62;36.19
40650;BME280;26342;42.826;23.992;2023-07-13T13:13:45;95334.59;;;35.67;39.38
40650;BME280;26342;42.826;23.992;2023-07-13T13:16:34;95338.47;;;35.73;44.17
40650;BME280;26342;42.826;23.992;2023-07-13T13:19:10;95337.25;;;35.74;46.75
40650;BME280;26342;42.826;23.992;2023-07-13T13:21:37;95336.91;;;35.72;47.07
40650;BME280;26342;42.826;23.992;2023-07-13T13:24:10;95337.03;;;35.62;42.92
40650;BME280;26342;42.826;23.992;2023-07-13T13:26:36;95339.94;;;35.55;43.80
40650;BME280;26342;42.826;23.992;2023-07-13T13:29:09;95348.69;;;35.53;40.47
40650;BME280;26342;42.826;23.992;2023-07-13T13:31:36;95334.63;;;35.40;40.19
40650;BME280;26342;42.826;23.992;2023-07-13T13:34:01;95336.50;;;35.16;37.48